Lucky Me — ZGGN7 — position and weather

sailwx.info

Track history (hours):
 
Tides and Currents Weather Stations Pressure Air Temp Water Temp Dewpoint Dewpoint Depression Visibility Wind Speed Wind Dir Waves Ship Positions

Lucky Me

Last reported at 2018-Jun-24 14:50 UTC. Time now 2018-Jun-24 16:20 UTC.
Position N 45°14' E 013°36'.

Type: Ship. MMSI: 235235235.

Date/timePositionNaut miles runAvg speedWind from/ knotsBaromVisibWave heightAir tempDewpointWater temp
2018-Jun-24 14:50N 45°14' E 013°36'0 0.0
2018-Jun-24 14:30N 45°14' E 013°36'0 0.0
2018-Jun-24 14:00N 45°14' E 013°36'0 0.0
2018-Jun-24 13:28N 45°14' E 013°36'0 0.0
2018-Jun-24 12:45N 45°14' E 013°36'0 0.0
2018-Jun-24 11:00N 45°14' E 013°36'1 1.5
2018-Jun-24 10:30N 45°14' E 013°35'1 1.1
2018-Jun-24 10:00N 45°13' E 013°34'1 2.6
2018-Jun-24 09:31N 45°12' E 013°34'0 0.0
2018-Jun-24 09:01N 45°12' E 013°34'0 0.4
2018-Jun-24 08:31N 45°12' E 013°34'5 9.2
2018-Jun-24 08:00N 45°08' E 013°35'3 5.9
2018-Jun-24 07:30N 45°05' E 013°37'1 0.0
2018-Jun-23 10:35N 45°05' E 013°38'1 7.2
2018-Jun-23 10:29N 45°05' E 013°37'3 6.5
2018-Jun-23 10:00N 45°07' E 013°33'611.5
2018-Jun-23 09:30N 45°13' E 013°31'713.2
2018-Jun-23 09:00N 45°19' E 013°30'713.2
2018-Jun-23 08:30N 45°26' E 013°28'612.5
2018-Jun-23 08:00N 45°32' E 013°31'713.4
2018-Jun-23 07:30N 45°37' E 013°37'611.8
2018-Jun-23 07:00N 45°39' E 013°45'1 0.0
2018-Jun-22 07:50N 45°39' E 013°46'0 0.0
2018-Jun-22 06:44N 45°39' E 013°46'0 0.0
2018-Jun-22 06:29N 45°39' E 013°46'0 0.0
2018-Jun-22 04:56N 45°39' E 013°46'0 0.0
2018-Jun-22 04:29N 45°39' E 013°46'0 0.0
2018-Jun-22 03:59N 45°39' E 013°46'0 0.0
2018-Jun-22 02:23N 45°39' E 013°46'0 0.0
2018-Jun-21 22:11N 45°39' E 013°46'0 0.0
2018-Jun-21 21:53N 45°39' E 013°46'0 0.0
2018-Jun-21 19:38N 45°39' E 013°46'0 0.0
2018-Jun-21 19:26N 45°39' E 013°46'0 0.0
2018-Jun-21 17:53N 45°39' E 013°46'0 0.0
2018-Jun-21 17:26N 45°39' E 013°46'0 0.0
2018-Jun-21 16:11N 45°39' E 013°46'0 0.0
2018-Jun-21 15:50N 45°39' E 013°46'0 0.0
2018-Jun-21 15:26N 45°39' E 013°46'0 0.0
2018-Jun-21 14:53N 45°39' E 013°46'0 0.0
2018-Jun-21 14:23N 45°39' E 013°46'0 0.0
2018-Jun-21 13:59N 45°39' E 013°46'0 0.0
2018-Jun-21 13:17N 45°39' E 013°46'0 0.0
2018-Jun-21 12:59N 45°39' E 013°46'0 0.0
2018-Jun-21 12:20N 45°39' E 013°46'0 0.0
2018-Jun-21 11:20N 45°39' E 013°46'0 0.0
2018-Jun-21 10:56N 45°39' E 013°46'0 0.0
2018-Jun-21 10:29N 45°39' E 013°46'0 0.0
2018-Jun-21 09:59N 45°39' E 013°46'0 0.0
2018-Jun-21 09:20N 45°39' E 013°46'0 0.0
2018-Jun-21 08:23N 45°39' E 013°46'0 0.0
2018-Jun-21 07:59N 45°39' E 013°46'0 0.0
2018-Jun-19 20:08N 45°39' E 013°46'  
2018-Jun-16 15:13N 45°39' E 013°46'0 0.0
2018-Jun-15 19:17N 45°39' E 013°46'1 3.0
2018-Jun-15 19:00N 45°39' E 013°45'5 9.8
2018-Jun-15 18:30N 45°38' E 013°38'713.7
2018-Jun-15 18:00N 45°32' E 013°31'612.9
2018-Jun-15 17:30N 45°26' E 013°29'714.0
2018-Jun-15 17:00N 45°19' E 013°31'714.1
2018-Jun-15 16:30N 45°13' E 013°33'713.8
2018-Jun-15 16:00N 45°06' E 013°36'2 0.7
2018-Jun-15 13:49N 45°05' E 013°38'0 0.2
2018-Jun-15 13:30N 45°05' E 013°38'0 0.3
2018-Jun-15 13:00N 45°05' E 013°37'3 6.4
2018-Jun-15 12:30N 45°02' E 013°36'  
Track history (hours):
 
Tides and Currents Weather Stations Pressure Air Temp Water Temp Dewpoint Dewpoint Depression Visibility Wind Speed Wind Dir Waves Ship Positions

Lucky Me

Last reported at 2018-Jun-24 14:50 UTC. Time now 2018-Jun-24 16:20 UTC.
Position N 45°14' E 013°36'.

Type: Ship. MMSI: 235235235.

Date/timePositionNaut miles runAvg speedWind from/ knotsBaromVisibWave heightAir tempDewpointWater temp
2018-Jun-24 14:50N 45°14' E 013°36'0 0.0
2018-Jun-24 14:30N 45°14' E 013°36'0 0.0
2018-Jun-24 14:00N 45°14' E 013°36'0 0.0
2018-Jun-24 13:28N 45°14' E 013°36'0 0.0
2018-Jun-24 12:45N 45°14' E 013°36'0 0.0
2018-Jun-24 11:00N 45°14' E 013°36'1 1.5
2018-Jun-24 10:30N 45°14' E 013°35'1 1.1
2018-Jun-24 10:00N 45°13' E 013°34'1 2.6
2018-Jun-24 09:31N 45°12' E 013°34'0 0.0
2018-Jun-24 09:01N 45°12' E 013°34'0 0.4
2018-Jun-24 08:31N 45°12' E 013°34'5 9.2
2018-Jun-24 08:00N 45°08' E 013°35'3 5.9
2018-Jun-24 07:30N 45°05' E 013°37'1 0.0
2018-Jun-23 10:35N 45°05' E 013°38'1 7.2
2018-Jun-23 10:29N 45°05' E 013°37'3 6.5
2018-Jun-23 10:00N 45°07' E 013°33'611.5
2018-Jun-23 09:30N 45°13' E 013°31'713.2
2018-Jun-23 09:00N 45°19' E 013°30'713.2
2018-Jun-23 08:30N 45°26' E 013°28'612.5
2018-Jun-23 08:00N 45°32' E 013°31'713.4
2018-Jun-23 07:30N 45°37' E 013°37'611.8
2018-Jun-23 07:00N 45°39' E 013°45'1 0.0
2018-Jun-22 07:50N 45°39' E 013°46'0 0.0
2018-Jun-22 06:44N 45°39' E 013°46'0 0.0
2018-Jun-22 06:29N 45°39' E 013°46'0 0.0
2018-Jun-22 04:56N 45°39' E 013°46'0 0.0
2018-Jun-22 04:29N 45°39' E 013°46'0 0.0
2018-Jun-22 03:59N 45°39' E 013°46'0 0.0
2018-Jun-22 02:23N 45°39' E 013°46'0 0.0
2018-Jun-21 22:11N 45°39' E 013°46'0 0.0
2018-Jun-21 21:53N 45°39' E 013°46'0 0.0
2018-Jun-21 19:38N 45°39' E 013°46'0 0.0
2018-Jun-21 19:26N 45°39' E 013°46'0 0.0
2018-Jun-21 17:53N 45°39' E 013°46'0 0.0
2018-Jun-21 17:26N 45°39' E 013°46'0 0.0
2018-Jun-21 16:11N 45°39' E 013°46'0 0.0
2018-Jun-21 15:50N 45°39' E 013°46'0 0.0
2018-Jun-21 15:26N 45°39' E 013°46'0 0.0
2018-Jun-21 14:53N 45°39' E 013°46'0 0.0
2018-Jun-21 14:23N 45°39' E 013°46'0 0.0
2018-Jun-21 13:59N 45°39' E 013°46'0 0.0
2018-Jun-21 13:17N 45°39' E 013°46'0 0.0
2018-Jun-21 12:59N 45°39' E 013°46'0 0.0
2018-Jun-21 12:20N 45°39' E 013°46'0 0.0
2018-Jun-21 11:20N 45°39' E 013°46'0 0.0
2018-Jun-21 10:56N 45°39' E 013°46'0 0.0
2018-Jun-21 10:29N 45°39' E 013°46'0 0.0
2018-Jun-21 09:59N 45°39' E 013°46'0 0.0
2018-Jun-21 09:20N 45°39' E 013°46'0 0.0
2018-Jun-21 08:23N 45°39' E 013°46'0 0.0
2018-Jun-21 07:59N 45°39' E 013°46'0 0.0
2018-Jun-19 20:08N 45°39' E 013°46'  
2018-Jun-16 15:13N 45°39' E 013°46'0 0.0
2018-Jun-15 19:17N 45°39' E 013°46'1 3.0
2018-Jun-15 19:00N 45°39' E 013°45'5 9.8
2018-Jun-15 18:30N 45°38' E 013°38'713.7
2018-Jun-15 18:00N 45°32' E 013°31'612.9
2018-Jun-15 17:30N 45°26' E 013°29'714.0
2018-Jun-15 17:00N 45°19' E 013°31'714.1
2018-Jun-15 16:30N 45°13' E 013°33'713.8
2018-Jun-15 16:00N 45°06' E 013°36'2 0.7
2018-Jun-15 13:49N 45°05' E 013°38'0 0.2
2018-Jun-15 13:30N 45°05' E 013°38'0 0.3
2018-Jun-15 13:00N 45°05' E 013°37'3 6.4
2018-Jun-15 12:30N 45°02' E 013°36'  

Dump ship's entire track history